sensor_id;sensor_type;location;lat;lon;timestamp;temperature;humidity
19755;DHT22;10036;47.812;9.274;2023-02-04T00:01:31;5.60;99.90
19755;DHT22;10036;47.812;9.274;2023-02-04T00:03:58;5.60;99.90
19755;DHT22;10036;47.812;9.274;2023-02-04T00:06:25;5.50;99.90
19755;DHT22;10036;47.812;9.274;2023-02-04T00:08:52;5.50;99.90
19755;DHT22;10036;47.812;9.274;2023-02-04T00:11:19;5.50;99.90
19755;DHT22;10036;47.812;9.274;2023-02-04T00:13:46;5.50;99.90
19755;DHT22;10036;47.812;9.274;2023-02-04T00:16:14;5.50;99.90
19755;DHT22;10036;47.812;9.274;2023-02-04T00:18:41;5.50;99.90
19755;DHT22;10036;47.812;9.274;2023-02-04T00:21:08;5.50;99.90
19755;DHT22;10036;47.812;9.274;2023-02-04T00:23:35;5.50;99.90
19755;DHT22;10036;47.812;9.274;2023-02-04T00:26:02;5.50;99.90
19755;DHT22;10036;47.812;9.274;2023-02-04T00:28:29;5.50;99.90
19755;DHT22;10036;47.812;9.274;2023-02-04T00:30:56;5.50;99.90
19755;DHT22;10036;47.812;9.274;2023-02-04T00:33:24;5.50;99.90
19755;DHT22;10036;47.812;9.274;2023-02-04T00:35:51;5.60;99.90
19755;DHT22;10036;47.812;9.274;2023-02-04T00:38:18;5.60;99.90
19755;DHT22;10036;47.812;9.274;2023-02-04T00:40:45;5.50;99.90
19755;DHT22;10036;47.812;9.274;2023-02-04T00:43:11;5.50;99.90
19755;DHT22;10036;47.812;9.274;2023-02-04T00:45:38;5.50;99.90
19755;DHT22;10036;47.812;9.274;2023-02-04T00:48:05;5.50;99.90
19755;DHT22;10036;47.812;9.274;2023-02-04T00:50:33;5.50;99.90
19755;DHT22;10036;47.812;9.274;2023-02-04T00:53:04;5.60;99.90
19755;DHT22;10036;47.812;9.274;2023-02-04T00:55:31;5.60;99.90
19755;DHT22;10036;47.812;9.274;2023-02-04T00:57:58;5.60;99.90
19755;DHT22;10036;47.812;9.274;2023-02-04T01:00:25;5.50;99.90
19755;DHT22;10036;47.812;9.274;2023-02-04T01:02:51;5.50;99.90
19755;DHT22;10036;47.812;9.274;2023-02-04T01:05:18;5.50;99.90
19755;DHT22;10036;47.812;9.274;2023-02-04T01:07:46;5.40;99.90
19755;DHT22;10036;47.812;9.274;2023-02-04T01:10:13;5.40;99.90
19755;DHT22;10036;47.812;9.274;2023-02-04T01:12:41;5.50;99.90
19755;DHT22;10036;47.812;9.274;2023-02-04T01:15:09;5.50;99.90
19755;DHT22;10036;47.812;9.274;2023-02-04T01:17:36;5.40;99.90
19755;DHT22;10036;47.812;9.274;2023-02-04T01:20:03;5.40;99.90
19755;DHT22;10036;47.812;9.274;2023-02-04T01:22:30;5.40;99.90
19755;DHT22;10036;47.812;9.274;2023-02-04T01:24:58;5.40;99.90
19755;DHT22;10036;47.812;9.274;2023-02-04T01:27:24;5.50;99.90
19755;DHT22;10036;47.812;9.274;2023-02-04T01:29:52;5.50;99.90
19755;DHT22;10036;47.812;9.274;2023-02-04T01:32:19;5.40;99.90
19755;DHT22;10036;47.812;9.274;2023-02-04T01:34:45;5.50;99.90
19755;DHT22;10036;47.812;9.274;2023-02-04T01:37:12;5.40;99.90
19755;DHT22;10036;47.812;9.274;2023-02-04T01:39:39;5.40;99.90
19755;DHT22;10036;47.812;9.274;2023-02-04T01:42:07;5.40;99.90
19755;DHT22;10036;47.812;9.274;2023-02-04T01:44:35;5.40;99.90
19755;DHT22;10036;47.812;9.274;2023-02-04T01:47:02;5.40;99.90
19755;DHT22;10036;47.812;9.274;2023-02-04T01:49:29;5.40;99.90
19755;DHT22;10036;47.812;9.274;2023-02-04T01:51:56;5.50;99.90
19755;DHT22;10036;47.812;9.274;2023-02-04T01:54:25;5.40;99.90
19755;DHT22;10036;47.812;9.274;2023-02-04T01:56:52;5.40;99.90
19755;DHT22;10036;47.812;9.274;2023-02-04T01:59:21;5.40;99.90
19755;DHT22;10036;47.812;9.274;2023-02-04T02:01:51;5.50;99.90
19755;DHT22;10036;47.812;9.274;2023-02-04T02:04:20;5.40;99.90
19755;DHT22;10036;47.812;9.274;2023-02-04T02:06:52;5.40;99.90
19755;DHT22;10036;47.812;9.274;2023-02-04T02:09:19;5.40;99.90
19755;DHT22;10036;47.812;9.274;2023-02-04T02:11:47;5.40;99.90
19755;DHT22;10036;47.812;9.274;2023-02-04T02:14:14;5.40;99.90
19755;DHT22;10036;47.812;9.274;2023-02-04T02:16:42;5.40;99.90
19755;DHT22;10036;47.812;9.274;2023-02-04T02:19:12;5.40;99.90
19755;DHT22;10036;47.812;9.274;2023-02-04T02:21:47;5.40;99.90
19755;DHT22;10036;47.812;9.274;2023-02-04T02:24:25;5.40;99.90
19755;DHT22;10036;47.812;9.274;2023-02-04T02:26:53;5.40;99.90
19755;DHT22;10036;47.812;9.274;2023-02-04T02:29:20;5.30;99.90
19755;DHT22;10036;47.812;9.274;2023-02-04T02:31:47;5.40;99.90
19755;DHT22;10036;47.812;9.274;2023-02-04T02:34:15;5.40;99.90
19755;DHT22;10036;47.812;9.274;2023-02-04T02:36:42;5.30;99.90
19755;DHT22;10036;47.812;9.274;2023-02-04T02:39:09;5.40;99.90
19755;DHT22;10036;47.812;9.274;2023-02-04T02:41:37;5.40;99.90
19755;DHT22;10036;47.812;9.274;2023-02-04T02:44:04;5.40;99.90
19755;DHT22;10036;47.812;9.274;2023-02-04T02:46:31;5.40;99.90
19755;DHT22;10036;47.812;9.274;2023-02-04T02:48:58;5.50;99.90
19755;DHT22;10036;47.812;9.274;2023-02-04T02:51:25;5.50;99.90
19755;DHT22;10036;47.812;9.274;2023-02-04T02:53:52;5.40;99.90
19755;DHT22;10036;47.812;9.274;2023-02-04T02:56:19;5.40;99.90
19755;DHT22;10036;47.812;9.274;2023-02-04T02:58:47;5.40;99.90
19755;DHT22;10036;47.812;9.274;2023-02-04T03:01:14;5.40;99.90
19755;DHT22;10036;47.812;9.274;2023-02-04T03:03:45;5.30;99.90
19755;DHT22;10036;47.812;9.274;2023-02-04T03:06:15;5.40;99.90
19755;DHT22;10036;47.812;9.274;2023-02-04T03:08:45;5.40;99.90
19755;DHT22;10036;47.812;9.274;2023-02-04T03:11:13;5.40;99.90
19755;DHT22;10036;47.812;9.274;2023-02-04T03:13:39;5.40;99.90
19755;DHT22;10036;47.812;9.274;2023-02-04T03:16:08;5.40;99.90
19755;DHT22;10036;47.812;9.274;2023-02-04T03:18:35;5.40;99.90
19755;DHT22;10036;47.812;9.274;2023-02-04T03:21:03;5.30;99.90
19755;DHT22;10036;47.812;9.274;2023-02-04T03:23:32;5.30;99.90
19755;DHT22;10036;47.812;9.274;2023-02-04T03:25:59;5.30;99.90
19755;DHT22;10036;47.812;9.274;2023-02-04T03:28:26;5.30;99.90
19755;DHT22;10036;47.812;9.274;2023-02-04T03:30:53;5.30;99.90
19755;DHT22;10036;47.812;9.274;2023-02-04T03:33:22;5.30;99.90
19755;DHT22;10036;47.812;9.274;2023-02-04T03:35:50;5.30;99.90
19755;DHT22;10036;47.812;9.274;2023-02-04T03:38:18;5.30;99.90
19755;DHT22;10036;47.812;9.274;2023-02-04T03:40:45;5.20;99.90
19755;DHT22;10036;47.812;9.274;2023-02-04T03:43:11;5.20;99.90
19755;DHT22;10036;47.812;9.274;2023-02-04T03:45:38;5.20;99.90
19755;DHT22;10036;47.812;9.274;2023-02-04T03:48:05;5.20;99.90
19755;DHT22;10036;47.812;9.274;2023-02-04T03:50:33;5.30;99.90
19755;DHT22;10036;47.812;9.274;2023-02-04T03:53:00;5.40;99.90
19755;DHT22;10036;47.812;9.274;2023-02-04T03:55:27;5.30;99.90
19755;DHT22;10036;47.812;9.274;2023-02-04T03:57:54;5.30;99.90
19755;DHT22;10036;47.812;9.274;2023-02-04T04:00:21;5.30;99.90
19755;DHT22;10036;47.812;9.274;2023-02-04T04:02:48;5.40;99.90
19755;DHT22;10036;47.812;9.274;2023-02-04T04:05:16;5.30;99.90
19755;DHT22;10036;47.812;9.274;2023-02-04T04:07:44;5.30;99.90
19755;DHT22;10036;47.812;9.274;2023-02-04T04:10:11;5.30;99.90
19755;DHT22;10036;47.812;9.274;2023-02-04T04:12:38;5.20;99.90
19755;DHT22;10036;47.812;9.274;2023-02-04T04:15:06;5.20;99.90
19755;DHT22;10036;47.812;9.274;2023-02-04T04:17:33;5.20;99.90
19755;DHT22;10036;47.812;9.274;2023-02-04T04:20:00;5.20;99.90
19755;DHT22;10036;47.812;9.274;2023-02-04T04:22:27;5.20;99.90
19755;DHT22;10036;47.812;9.274;2023-02-04T04:24:55;5.20;99.90
19755;DHT22;10036;47.812;9.274;2023-02-04T04:27:22;5.20;99.90
19755;DHT22;10036;47.812;9.274;2023-02-04T04:29:49;5.20;99.90
19755;DHT22;10036;47.812;9.274;2023-02-04T04:32:15;5.30;99.90
19755;DHT22;10036;47.812;9.274;2023-02-04T04:34:42;5.30;99.90
19755;DHT22;10036;47.812;9.274;2023-02-04T04:37:09;5.30;99.90
19755;DHT22;10036;47.812;9.274;2023-02-04T04:39:36;5.30;99.90
19755;DHT22;10036;47.812;9.274;2023-02-04T04:42:04;5.40;99.90
19755;DHT22;10036;47.812;9.274;2023-02-04T04:44:31;5.30;99.90
19755;DHT22;10036;47.812;9.274;2023-02-04T04:46:58;5.30;99.90
19755;DHT22;10036;47.812;9.274;2023-02-04T04:49:25;5.20;99.90
19755;DHT22;10036;47.812;9.274;2023-02-04T04:51:51;5.20;99.90
19755;DHT22;10036;47.812;9.274;2023-02-04T04:54:18;5.30;99.90
19755;DHT22;10036;47.812;9.274;2023-02-04T04:56:45;5.20;99.90
19755;DHT22;10036;47.812;9.274;2023-02-04T04:59:13;5.30;99.90
19755;DHT22;10036;47.812;9.274;2023-02-04T05:01:40;5.20;99.90
19755;DHT22;10036;47.812;9.274;2023-02-04T05:04:07;5.20;99.90
19755;DHT22;10036;47.812;9.274;2023-02-04T05:06:34;5.20;99.90
19755;DHT22;10036;47.812;9.274;2023-02-04T05:09:00;5.20;99.90
19755;DHT22;10036;47.812;9.274;2023-02-04T05:11:27;5.20;99.90
19755;DHT22;10036;47.812;9.274;2023-02-04T05:13:54;5.20;99.90
19755;DHT22;10036;47.812;9.274;2023-02-04T05:16:22;5.20;99.90
19755;DHT22;10036;47.812;9.274;2023-02-04T05:18:49;5.20;99.90
19755;DHT22;10036;47.812;9.274;2023-02-04T05:21:16;5.20;99.90
19755;DHT22;10036;47.812;9.274;2023-02-04T05:23:43;5.30;99.90
19755;DHT22;10036;47.812;9.274;2023-02-04T05:26:09;5.30;99.90
19755;DHT22;10036;47.812;9.274;2023-02-04T05:28:36;5.30;99.90
19755;DHT22;10036;47.812;9.274;2023-02-04T05:31:03;5.30;99.90
19755;DHT22;10036;47.812;9.274;2023-02-04T05:33:31;5.30;99.90
19755;DHT22;10036;47.812;9.274;2023-02-04T05:35:58;5.30;99.90
19755;DHT22;10036;47.812;9.274;2023-02-04T05:38:25;5.30;99.90
19755;DHT22;10036;47.812;9.274;2023-02-04T05:40:52;5.30;99.90
19755;DHT22;10036;47.812;9.274;2023-02-04T05:43:18;5.30;99.90
19755;DHT22;10036;47.812;9.274;2023-02-04T05:45:45;5.40;99.90
19755;DHT22;10036;47.812;9.274;2023-02-04T05:48:12;5.40;99.90
19755;DHT22;10036;47.812;9.274;2023-02-04T05:50:40;5.50;99.90
19755;DHT22;10036;47.812;9.274;2023-02-04T05:53:07;5.40;99.90
19755;DHT22;10036;47.812;9.274;2023-02-04T05:55:34;5.40;99.90
19755;DHT22;10036;47.812;9.274;2023-02-04T05:58:01;5.30;99.90
19755;DHT22;10036;47.812;9.274;2023-02-04T06:00:28;5.30;99.90
19755;DHT22;10036;47.812;9.274;2023-02-04T06:02:55;5.30;99.90
19755;DHT22;10036;47.812;9.274;2023-02-04T06:05:21;5.30;99.90
19755;DHT22;10036;47.812;9.274;2023-02-04T06:07:50;5.30;99.90
19755;DHT22;10036;47.812;9.274;2023-02-04T06:10:16;5.40;99.90
19755;DHT22;10036;47.812;9.274;2023-02-04T06:12:45;5.30;99.90
19755;DHT22;10036;47.812;9.274;2023-02-04T06:15:12;5.30;99.90
19755;DHT22;10036;47.812;9.274;2023-02-04T06:17:39;5.30;99.90
19755;DHT22;10036;47.812;9.274;2023-02-04T06:20:07;5.30;99.90
19755;DHT22;10036;47.812;9.274;2023-02-04T06:22:34;5.30;99.90
19755;DHT22;10036;47.812;9.274;2023-02-04T06:25:02;5.30;99.90
19755;DHT22;10036;47.812;9.274;2023-02-04T06:27:29;5.20;99.90
19755;DHT22;10036;47.812;9.274;2023-02-04T06:29:56;5.20;99.90
19755;DHT22;10036;47.812;9.274;2023-02-04T06:32:23;5.20;99.90
19755;DHT22;10036;47.812;9.274;2023-02-04T06:34:50;5.20;99.90
19755;DHT22;10036;47.812;9.274;2023-02-04T06:37:17;5.30;99.90
19755;DHT22;10036;47.812;9.274;2023-02-04T06:39:44;5.40;99.90
19755;DHT22;10036;47.812;9.274;2023-02-04T06:42:12;5.30;99.90
19755;DHT22;10036;47.812;9.274;2023-02-04T06:44:38;5.30;99.90
19755;DHT22;10036;47.812;9.274;2023-02-04T06:47:06;5.20;99.90
19755;DHT22;10036;47.812;9.274;2023-02-04T06:49:32;5.20;99.90
19755;DHT22;10036;47.812;9.274;2023-02-04T06:51:59;5.20;99.90
19755;DHT22;10036;47.812;9.274;2023-02-04T06:54:26;5.20;99.90
19755;DHT22;10036;47.812;9.274;2023-02-04T06:56:53;5.20;99.90
19755;DHT22;10036;47.812;9.274;2023-02-04T06:59:21;5.20;99.90
19755;DHT22;10036;47.812;9.274;2023-02-04T07:01:49;5.20;99.90
19755;DHT22;10036;47.812;9.274;2023-02-04T07:04:16;5.20;99.90
19755;DHT22;10036;47.812;9.274;2023-02-04T07:06:43;5.30;99.90
19755;DHT22;10036;47.812;9.274;2023-02-04T07:09:10;5.40;99.90
19755;DHT22;10036;47.812;9.274;2023-02-04T07:11:37;5.30;99.90
19755;DHT22;10036;47.812;9.274;2023-02-04T07:14:03;5.30;99.90
19755;DHT22;10036;47.812;9.274;2023-02-04T07:16:32;5.20;99.90
19755;DHT22;10036;47.812;9.274;2023-02-04T07:18:58;5.20;99.90
19755;DHT22;10036;47.812;9.274;2023-02-04T07:21:25;5.20;99.90
19755;DHT22;10036;47.812;9.274;2023-02-04T07:23:52;5.20;99.90
19755;DHT22;10036;47.812;9.274;2023-02-04T07:26:19;5.20;99.90
19755;DHT22;10036;47.812;9.274;2023-02-04T07:28:46;5.20;99.90
19755;DHT22;10036;47.812;9.274;2023-02-04T07:31:13;5.20;99.90
19755;DHT22;10036;47.812;9.274;2023-02-04T07:33:41;5.30;99.90
19755;DHT22;10036;47.812;9.274;2023-02-04T07:36:08;5.30;99.90
19755;DHT22;10036;47.812;9.274;2023-02-04T07:38:35;5.30;99.90
19755;DHT22;10036;47.812;9.274;2023-02-04T07:41:01;5.30;99.90
19755;DHT22;10036;47.812;9.274;2023-02-04T07:43:28;5.40;99.90
19755;DHT22;10036;47.812;9.274;2023-02-04T07:45:55;5.40;99.90
19755;DHT22;10036;47.812;9.274;2023-02-04T07:48:22;5.40;99.90
19755;DHT22;10036;47.812;9.274;2023-02-04T07:50:50;5.40;99.90
19755;DHT22;10036;47.812;9.274;2023-02-04T07:53:17;5.40;99.90
19755;DHT22;10036;47.812;9.274;2023-02-04T07:55:44;5.40;99.90
19755;DHT22;10036;47.812;9.274;2023-02-04T07:58:11;5.40;99.90
19755;DHT22;10036;47.812;9.274;2023-02-04T08:00:37;5.40;99.90
19755;DHT22;10036;47.812;9.274;2023-02-04T08:03:04;5.40;99.90
19755;DHT22;10036;47.812;9.274;2023-02-04T08:05:31;5.40;99.90
19755;DHT22;10036;47.812;9.274;2023-02-04T08:07:59;5.30;99.90
19755;DHT22;10036;47.812;9.274;2023-02-04T08:10:27;5.40;99.90
19755;DHT22;10036;47.812;9.274;2023-02-04T08:12:54;5.40;99.90
19755;DHT22;10036;47.812;9.274;2023-02-04T08:15:21;5.40;99.90
19755;DHT22;10036;47.812;9.274;2023-02-04T08:17:47;5.40;99.90
19755;DHT22;10036;47.812;9.274;2023-02-04T08:20:14;5.40;99.90
19755;DHT22;10036;47.812;9.274;2023-02-04T08:22:42;5.50;99.90
19755;DHT22;10036;47.812;9.274;2023-02-04T08:25:11;5.40;99.90
19755;DHT22;10036;47.812;9.274;2023-02-04T08:27:38;5.40;99.90
19755;DHT22;10036;47.812;9.274;2023-02-04T08:30:06;5.50;99.90
19755;DHT22;10036;47.812;9.274;2023-02-04T08:32:33;5.60;99.90
19755;DHT22;10036;47.812;9.274;2023-02-04T08:35:00;5.50;99.90
19755;DHT22;10036;47.812;9.274;2023-02-04T08:37:27;5.40;99.90
19755;DHT22;10036;47.812;9.274;2023-02-04T08:39:54;5.50;99.90
19755;DHT22;10036;47.812;9.274;2023-02-04T08:42:22;5.50;99.90
19755;DHT22;10036;47.812;9.274;2023-02-04T08:44:49;5.40;99.90
19755;DHT22;10036;47.812;9.274;2023-02-04T08:47:16;5.40;99.90
19755;DHT22;10036;47.812;9.274;2023-02-04T08:49:43;5.40;99.90
19755;DHT22;10036;47.812;9.274;2023-02-04T08:52:10;5.40;99.90
19755;DHT22;10036;47.812;9.274;2023-02-04T08:54:37;5.40;99.90
19755;DHT22;10036;47.812;9.274;2023-02-04T08:57:04;5.50;99.90
19755;DHT22;10036;47.812;9.274;2023-02-04T08:59:32;5.50;99.90
19755;DHT22;10036;47.812;9.274;2023-02-04T09:01:59;5.50;99.90
19755;DHT22;10036;47.812;9.274;2023-02-04T09:04:27;5.50;99.90
19755;DHT22;10036;47.812;9.274;2023-02-04T09:06:54;5.50;99.90
19755;DHT22;10036;47.812;9.274;2023-02-04T09:09:21;5.50;99.90
19755;DHT22;10036;47.812;9.274;2023-02-04T09:11:48;5.50;99.90
19755;DHT22;10036;47.812;9.274;2023-02-04T09:14:15;5.50;99.90
19755;DHT22;10036;47.812;9.274;2023-02-04T09:16:43;5.50;99.90
19755;DHT22;10036;47.812;9.274;2023-02-04T09:19:10;5.50;99.90
19755;DHT22;10036;47.812;9.274;2023-02-04T09:21:40;5.50;99.90
19755;DHT22;10036;47.812;9.274;2023-02-04T09:24:07;5.50;99.90
19755;DHT22;10036;47.812;9.274;2023-02-04T09:26:34;5.60;99.90
19755;DHT22;10036;47.812;9.274;2023-02-04T09:29:01;5.60;99.90
19755;DHT22;10036;47.812;9.274;2023-02-04T09:31:28;5.60;99.90
19755;DHT22;10036;47.812;9.274;2023-02-04T09:33:56;5.60;99.90
19755;DHT22;10036;47.812;9.274;2023-02-04T09:36:24;5.50;99.90
19755;DHT22;10036;47.812;9.274;2023-02-04T09:38:53;5.60;99.90
19755;DHT22;10036;47.812;9.274;2023-02-04T09:41:20;5.60;99.90
19755;DHT22;10036;47.812;9.274;2023-02-04T09:43:47;5.70;99.90
19755;DHT22;10036;47.812;9.274;2023-02-04T09:46:18;5.70;99.90
19755;DHT22;10036;47.812;9.274;2023-02-04T09:48:46;5.70;99.90
19755;DHT22;10036;47.812;9.274;2023-02-04T09:51:17;5.80;99.90
19755;DHT22;10036;47.812;9.274;2023-02-04T09:53:46;5.80;99.90
19755;DHT22;10036;47.812;9.274;2023-02-04T09:56:13;5.90;99.90
19755;DHT22;10036;47.812;9.274;2023-02-04T09:58:41;6.00;99.90
19755;DHT22;10036;47.812;9.274;2023-02-04T10:01:13;6.00;99.90
19755;DHT22;10036;47.812;9.274;2023-02-04T10:03:41;6.10;99.90
19755;DHT22;10036;47.812;9.274;2023-02-04T10:06:13;6.10;99.90
19755;DHT22;10036;47.812;9.274;2023-02-04T10:08:42;6.10;99.90
19755;DHT22;10036;47.812;9.274;2023-02-04T10:11:10;6.20;99.90
19755;DHT22;10036;47.812;9.274;2023-02-04T10:13:40;6.20;99.90
19755;DHT22;10036;47.812;9.274;2023-02-04T10:16:12;6.20;99.90
19755;DHT22;10036;47.812;9.274;2023-02-04T10:18:40;6.30;99.90
19755;DHT22;10036;47.812;9.274;2023-02-04T10:21:13;6.30;99.90
19755;DHT22;10036;47.812;9.274;2023-02-04T10:23:44;6.30;99.90
19755;DHT22;10036;47.812;9.274;2023-02-04T10:26:13;6.30;99.90
19755;DHT22;10036;47.812;9.274;2023-02-04T10:28:41;6.30;99.90
19755;DHT22;10036;47.812;9.274;2023-02-04T10:31:26;6.20;99.90
19755;DHT22;10036;47.812;9.274;2023-02-04T10:34:02;6.20;99.90
19755;DHT22;10036;47.812;9.274;2023-02-04T10:36:29;6.20;99.90
19755;DHT22;10036;47.812;9.274;2023-02-04T10:39:01;6.20;99.90
19755;DHT22;10036;47.812;9.274;2023-02-04T10:41:28;6.20;99.90
19755;DHT22;10036;47.812;9.274;2023-02-04T10:44:02;6.30;99.90
19755;DHT22;10036;47.812;9.274;2023-02-04T10:46:30;6.40;99.90
19755;DHT22;10036;47.812;9.274;2023-02-04T10:48:57;6.60;99.90
19755;DHT22;10036;47.812;9.274;2023-02-04T10:51:24;6.80;99.90
19755;DHT22;10036;47.812;9.274;2023-02-04T10:53:51;7.10;99.90
19755;DHT22;10036;47.812;9.274;2023-02-04T10:56:39;7.20;99.90
19755;DHT22;10036;47.812;9.274;2023-02-04T10:59:15;7.10;99.90
19755;DHT22;10036;47.812;9.274;2023-02-04T11:01:44;7.10;99.90
19755;DHT22;10036;47.812;9.274;2023-02-04T11:04:11;7.00;99.90
19755;DHT22;10036;47.812;9.274;2023-02-04T11:06:38;7.00;99.90
19755;DHT22;10036;47.812;9.274;2023-02-04T11:09:05;7.00;99.90
19755;DHT22;10036;47.812;9.274;2023-02-04T11:11:32;7.00;99.90
19755;DHT22;10036;47.812;9.274;2023-02-04T11:14:01;6.90;99.90
19755;DHT22;10036;47.812;9.274;2023-02-04T11:16:29;7.00;99.90
19755;DHT22;10036;47.812;9.274;2023-02-04T11:19:01;7.00;99.90
19755;DHT22;10036;47.812;9.274;2023-02-04T11:21:41;7.10;99.90
19755;DHT22;10036;47.812;9.274;2023-02-04T11:24:22;7.20;99.90
19755;DHT22;10036;47.812;9.274;2023-02-04T11:26:50;7.20;99.90
19755;DHT22;10036;47.812;9.274;2023-02-04T11:29:28;7.10;99.90
19755;DHT22;10036;47.812;9.274;2023-02-04T11:32:02;7.10;99.90
19755;DHT22;10036;47.812;9.274;2023-02-04T11:34:44;7.10;99.90
19755;DHT22;10036;47.812;9.274;2023-02-04T11:37:15;7.10;99.90
19755;DHT22;10036;47.812;9.274;2023-02-04T11:39:44;7.10;99.90
19755;DHT22;10036;47.812;9.274;2023-02-04T11:42:18;7.40;99.90
19755;DHT22;10036;47.812;9.274;2023-02-04T11:44:55;7.50;99.90
19755;DHT22;10036;47.812;9.274;2023-02-04T11:47:24;7.40;99.90
19755;DHT22;10036;47.812;9.274;2023-02-04T11:49:55;7.30;99.90
19755;DHT22;10036;47.812;9.274;2023-02-04T11:52:22;7.40;99.90
19755;DHT22;10036;47.812;9.274;2023-02-04T11:54:53;7.40;99.90
19755;DHT22;10036;47.812;9.274;2023-02-04T11:57:20;7.30;99.90
19755;DHT22;10036;47.812;9.274;2023-02-04T11:59:47;7.30;99.90
19755;DHT22;10036;47.812;9.274;2023-02-04T12:02:16;7.50;99.90
19755;DHT22;10036;47.812;9.274;2023-02-04T12:04:54;7.30;99.90
19755;DHT22;10036;47.812;9.274;2023-02-04T12:07:27;7.00;99.90
19755;DHT22;10036;47.812;9.274;2023-02-04T12:09:55;7.00;99.90
19755;DHT22;10036;47.812;9.274;2023-02-04T12:12:24;7.10;99.90
19755;DHT22;10036;47.812;9.274;2023-02-04T12:15:01;7.10;99.90
19755;DHT22;10036;47.812;9.274;2023-02-04T12:17:30;7.50;99.90
19755;DHT22;10036;47.812;9.274;2023-02-04T12:19:57;7.60;99.90
19755;DHT22;10036;47.812;9.274;2023-02-04T12:22:24;7.70;99.90
19755;DHT22;10036;47.812;9.274;2023-02-04T12:24:51;7.80;99.90
19755;DHT22;10036;47.812;9.274;2023-02-04T12:27:18;7.70;99.90
19755;DHT22;10036;47.812;9.274;2023-02-04T12:29:44;7.70;99.90
19755;DHT22;10036;47.812;9.274;2023-02-04T12:32:11;7.70;99.90
19755;DHT22;10036;47.812;9.274;2023-02-04T12:34:40;7.60;99.90
19755;DHT22;10036;47.812;9.274;2023-02-04T12:37:06;7.50;99.90
19755;DHT22;10036;47.812;9.274;2023-02-04T12:39:33;7.60;99.90
19755;DHT22;10036;47.812;9.274;2023-02-04T12:42:00;7.60;99.90
19755;DHT22;10036;47.812;9.274;2023-02-04T12:44:29;7.60;99.90
19755;DHT22;10036;47.812;9.274;2023-02-04T12:46:56;7.60;99.90
19755;DHT22;10036;47.812;9.274;2023-02-04T12:49:22;7.70;99.90
19755;DHT22;10036;47.812;9.274;2023-02-04T12:51:51;7.70;99.90
19755;DHT22;10036;47.812;9.274;2023-02-04T12:54:18;7.80;99.90
19755;DHT22;10036;47.812;9.274;2023-02-04T12:56:45;7.80;99.90
19755;DHT22;10036;47.812;9.274;2023-02-04T12:59:13;7.70;99.90
19755;DHT22;10036;47.812;9.274;2023-02-04T13:01:40;7.70;99.90
19755;DHT22;10036;47.812;9.274;2023-02-04T13:04:07;7.70;99.90
19755;DHT22;10036;47.812;9.274;2023-02-04T13:06:34;7.80;99.90
19755;DHT22;10036;47.812;9.274;2023-02-04T13:09:02;7.80;99.90
19755;DHT22;10036;47.812;9.274;2023-02-04T13:11:29;7.80;99.90
19755;DHT22;10036;47.812;9.274;2023-02-04T13:13:56;7.70;99.90
19755;DHT22;10036;47.812;9.274;2023-02-04T13:16:23;7.80;99.90
19755;DHT22;10036;47.812;9.274;2023-02-04T13:18:50;7.80;99.90
19755;DHT22;10036;47.812;9.274;2023-02-04T13:21:17;7.80;99.90
19755;DHT22;10036;47.812;9.274;2023-02-04T13:23:44;7.70;99.90
19755;DHT22;10036;47.812;9.274;2023-02-04T13:26:12;7.60;99.90
19755;DHT22;10036;47.812;9.274;2023-02-04T13:28:39;7.80;99.90
19755;DHT22;10036;47.812;9.274;2023-02-04T13:31:06;7.60;99.90
19755;DHT22;10036;47.812;9.274;2023-02-04T13:33:32;7.70;99.90
19755;DHT22;10036;47.812;9.274;2023-02-04T13:35:59;7.60;99.90
19755;DHT22;10036;47.812;9.274;2023-02-04T13:38:26;7.60;99.90
19755;DHT22;10036;47.812;9.274;2023-02-04T13:40:53;7.60;99.90
19755;DHT22;10036;47.812;9.274;2023-02-04T13:43:21;7.50;99.90
19755;DHT22;10036;47.812;9.274;2023-02-04T13:45:48;7.40;99.90
19755;DHT22;10036;47.812;9.274;2023-02-04T13:48:15;7.40;99.90
19755;DHT22;10036;47.812;9.274;2023-02-04T13:50:42;7.30;99.90
19755;DHT22;10036;47.812;9.274;2023-02-04T13:53:09;7.30;99.90
19755;DHT22;10036;47.812;9.274;2023-02-04T13:55:36;7.50;99.90
19755;DHT22;10036;47.812;9.274;2023-02-04T13:58:02;7.50;99.90
19755;DHT22;10036;47.812;9.274;2023-02-04T14:00:31;7.50;99.90
19755;DHT22;10036;47.812;9.274;2023-02-04T14:02:58;7.40;99.90
19755;DHT22;10036;47.812;9.274;2023-02-04T14:05:24;7.50;99.90
19755;DHT22;10036;47.812;9.274;2023-02-04T14:07:51;7.40;99.90
19755;DHT22;10036;47.812;9.274;2023-02-04T14:10:18;7.40;99.90
19755;DHT22;10036;47.812;9.274;2023-02-04T14:12:47;7.50;99.90
19755;DHT22;10036;47.812;9.274;2023-02-04T14:15:14;7.50;99.90
19755;DHT22;10036;47.812;9.274;2023-02-04T14:17:45;7.60;99.90
19755;DHT22;10036;47.812;9.274;2023-02-04T14:20:12;7.60;99.90
19755;DHT22;10036;47.812;9.274;2023-02-04T14:22:38;7.60;99.90
19755;DHT22;10036;47.812;9.274;2023-02-04T14:25:06;7.60;99.90
19755;DHT22;10036;47.812;9.274;2023-02-04T14:27:34;7.60;99.90
19755;DHT22;10036;47.812;9.274;2023-02-04T14:30:05;7.60;99.90
19755;DHT22;10036;47.812;9.274;2023-02-04T14:32:32;7.70;99.90
19755;DHT22;10036;47.812;9.274;2023-02-04T14:35:01;7.70;99.90
19755;DHT22;10036;47.812;9.274;2023-02-04T14:37:27;7.70;99.90
19755;DHT22;10036;47.812;9.274;2023-02-04T14:39:54;7.60;99.90
19755;DHT22;10036;47.812;9.274;2023-02-04T14:42:21;7.60;99.90
19755;DHT22;10036;47.812;9.274;2023-02-04T14:44:48;7.70;99.90
19755;DHT22;10036;47.812;9.274;2023-02-04T14:47:15;7.70;99.90
19755;DHT22;10036;47.812;9.274;2023-02-04T14:49:42;7.80;99.90
19755;DHT22;10036;47.812;9.274;2023-02-04T14:52:10;7.70;99.90
19755;DHT22;10036;47.812;9.274;2023-02-04T14:54:37;7.50;99.90
19755;DHT22;10036;47.812;9.274;2023-02-04T14:57:04;7.50;99.90
19755;DHT22;10036;47.812;9.274;2023-02-04T14:59:35;7.40;99.90
19755;DHT22;10036;47.812;9.274;2023-02-04T15:02:04;7.40;99.90
19755;DHT22;10036;47.812;9.274;2023-02-04T15:04:31;7.30;99.90
19755;DHT22;10036;47.812;9.274;2023-02-04T15:06:58;7.30;99.90
19755;DHT22;10036;47.812;9.274;2023-02-04T15:09:26;7.30;99.90
19755;DHT22;10036;47.812;9.274;2023-02-04T15:11:54;7.30;99.90
19755;DHT22;10036;47.812;9.274;2023-02-04T15:14:20;7.20;99.90
19755;DHT22;10036;47.812;9.274;2023-02-04T15:16:47;7.20;99.90
19755;DHT22;10036;47.812;9.274;2023-02-04T15:19:14;7.10;99.90
19755;DHT22;10036;47.812;9.274;2023-02-04T15:21:42;7.10;99.90
19755;DHT22;10036;47.812;9.274;2023-02-04T15:24:09;7.00;99.90
19755;DHT22;10036;47.812;9.274;2023-02-04T15:26:37;7.10;99.90
19755;DHT22;10036;47.812;9.274;2023-02-04T15:29:04;7.00;99.90
19755;DHT22;10036;47.812;9.274;2023-02-04T15:31:31;7.00;99.90
19755;DHT22;10036;47.812;9.274;2023-02-04T15:33:59;6.90;99.90
19755;DHT22;10036;47.812;9.274;2023-02-04T15:36:26;6.80;99.90
19755;DHT22;10036;47.812;9.274;2023-02-04T15:38:52;6.80;99.90
19755;DHT22;10036;47.812;9.274;2023-02-04T15:41:19;6.80;99.90
19755;DHT22;10036;47.812;9.274;2023-02-04T15:43:48;6.80;99.90
19755;DHT22;10036;47.812;9.274;2023-02-04T15:46:15;6.80;99.90
19755;DHT22;10036;47.812;9.274;2023-02-04T15:48:42;6.80;99.90